sensor_id;sensor_type;location;lat;lon;timestamp;pressure;altitude;pressure_sealevel;temperature;humidity
59419;BME280;45224;50.904;6.038;2023-03-14T00:14:36;97449.38;;;9.51;96.81
59419;BME280;45224;50.904;6.038;2023-03-14T00:16:09;97452.69;;;9.56;97.10
59419;BME280;45224;50.904;6.038;2023-03-14T00:17:42;97441.88;;;9.45;96.99
59419;BME280;45224;50.904;6.038;2023-03-14T00:19:15;97458.94;;;9.22;99.55
59419;BME280;45224;50.904;6.038;2023-03-14T00:20:46;97467.72;;;9.15;99.93
59419;BME280;45224;50.904;6.038;2023-03-14T00:22:16;97460.78;;;9.17;100.00
59419;BME280;45224;50.904;6.038;2023-03-14T00:23:47;97463.38;;;9.17;100.00
59419;BME280;45224;50.904;6.038;2023-03-14T00:25:18;97476.19;;;8.92;100.00
59419;BME280;45224;50.904;6.038;2023-03-14T00:26:48;97457.91;;;9.00;100.00
59419;BME280;45224;50.904;6.038;2023-03-14T00:28:19;97470.72;;;9.03;100.00
59419;BME280;45224;50.904;6.038;2023-03-14T00:29:51;97469.91;;;9.01;100.00
59419;BME280;45224;50.904;6.038;2023-03-14T00:31:22;97471.50;;;9.05;100.00
59419;BME280;45224;50.904;6.038;2023-03-14T00:32:52;97469.06;;;9.00;100.00
59419;BME280;45224;50.904;6.038;2023-03-14T00:34:23;97463.72;;;9.06;100.00
59419;BME280;45224;50.904;6.038;2023-03-14T00:36:01;97464.59;;;9.05;100.00
59419;BME280;45224;50.904;6.038;2023-03-14T00:37:33;97456.03;;;9.05;100.00
59419;BME280;45224;50.904;6.038;2023-03-14T00:39:03;97461.94;;;9.08;100.00
59419;BME280;45224;50.904;6.038;2023-03-14T00:40:38;97449.63;;;9.17;100.00
59419;BME280;45224;50.904;6.038;2023-03-14T00:42:09;97450.88;;;9.05;100.00
59419;BME280;45224;50.904;6.038;2023-03-14T00:43:40;97457.31;;;9.18;100.00
59419;BME280;45224;50.904;6.038;2023-03-14T00:45:10;97457.53;;;9.12;100.00
59419;BME280;45224;50.904;6.038;2023-03-14T00:46:41;97445.63;;;9.08;100.00
59419;BME280;45224;50.904;6.038;2023-03-14T00:48:11;97466.72;;;9.21;100.00
59419;BME280;45224;50.904;6.038;2023-03-14T00:49:42;97457.31;;;9.18;100.00
59419;BME280;45224;50.904;6.038;2023-03-14T00:51:13;97465.94;;;9.17;100.00
59419;BME280;45224;50.904;6.038;2023-03-14T00:52:47;97464.19;;;9.19;100.00
59419;BME280;45224;50.904;6.038;2023-03-14T00:54:21;97455.53;;;9.20;100.00
59419;BME280;45224;50.904;6.038;2023-03-14T00:55:51;97459.91;;;9.18;100.00
59419;BME280;45224;50.904;6.038;2023-03-14T00:57:22;97455.34;;;9.26;100.00
59419;BME280;45224;50.904;6.038;2023-03-14T00:58:54;97449.53;;;9.20;100.00
59419;BME280;45224;50.904;6.038;2023-03-14T01:00:25;97453.69;;;9.25;100.00
59419;BME280;45224;50.904;6.038;2023-03-14T01:01:56;97448.47;;;9.27;100.00
59419;BME280;45224;50.904;6.038;2023-03-14T01:03:26;97452.78;;;9.26;100.00
59419;BME280;45224;50.904;6.038;2023-03-14T01:04:57;97455.59;;;9.19;100.00
59419;BME280;45224;50.904;6.038;2023-03-14T01:06:28;97449.22;;;9.30;100.00
59419;BME280;45224;50.904;6.038;2023-03-14T01:07:59;97450.09;;;9.29;100.00
59419;BME280;45224;50.904;6.038;2023-03-14T01:09:31;97448.41;;;9.28;100.00
59419;BME280;45224;50.904;6.038;2023-03-14T01:11:08;97441.47;;;9.30;100.00
59419;BME280;45224;50.904;6.038;2023-03-14T01:12:39;97430.44;;;9.27;100.00
59419;BME280;45224;50.904;6.038;2023-03-14T01:14:10;97434.81;;;9.23;100.00
59419;BME280;45224;50.904;6.038;2023-03-14T01:15:40;97434.91;;;9.20;100.00
59419;BME280;45224;50.904;6.038;2023-03-14T01:17:14;97428.00;;;9.22;100.00
59419;BME280;45224;50.904;6.038;2023-03-14T01:18:46;97426.00;;;9.30;100.00
59419;BME280;45224;50.904;6.038;2023-03-14T01:20:17;97415.88;;;9.24;100.00
59419;BME280;45224;50.904;6.038;2023-03-14T01:21:47;97405.78;;;9.18;100.00
59419;BME280;45224;50.904;6.038;2023-03-14T01:23:18;97405.56;;;9.24;100.00
59419;BME280;45224;50.904;6.038;2023-03-14T01:24:48;97385.84;;;9.23;100.00
59419;BME280;45224;50.904;6.038;2023-03-14T01:26:21;97392.44;;;9.32;99.72
59419;BME280;45224;50.904;6.038;2023-03-14T01:27:52;97394.34;;;9.27;99.24
59419;BME280;45224;50.904;6.038;2023-03-14T01:29:23;97390.94;;;9.25;98.90
59419;BME280;45224;50.904;6.038;2023-03-14T01:30:54;97393.47;;;9.26;99.24
59419;BME280;45224;50.904;6.038;2023-03-14T01:32:24;97398.53;;;9.03;100.00
59419;BME280;45224;50.904;6.038;2023-03-14T01:33:56;97399.78;;;9.18;99.80
59419;BME280;45224;50.904;6.038;2023-03-14T01:35:27;97393.66;;;9.20;99.65
59419;BME280;45224;50.904;6.038;2023-03-14T01:36:59;97406.78;;;9.14;100.00
59419;BME280;45224;50.904;6.038;2023-03-14T01:38:34;97391.69;;;9.02;100.00
59419;BME280;45224;50.904;6.038;2023-03-14T01:40:05;97397.44;;;9.10;100.00
59419;BME280;45224;50.904;6.038;2023-03-14T01:41:36;97395.66;;;9.12;100.00
59419;BME280;45224;50.904;6.038;2023-03-14T01:43:18;97387.97;;;9.10;100.00
59419;BME280;45224;50.904;6.038;2023-03-14T01:44:57;97387.97;;;9.10;100.00
59419;BME280;45224;50.904;6.038;2023-03-14T01:46:42;97387.09;;;9.11;100.00
59419;BME280;45224;50.904;6.038;2023-03-14T01:48:14;97387.72;;;9.18;100.00
59419;BME280;45224;50.904;6.038;2023-03-14T01:49:46;97381.78;;;9.16;100.00
59419;BME280;45224;50.904;6.038;2023-03-14T01:51:26;97374.28;;;9.08;100.00
59419;BME280;45224;50.904;6.038;2023-03-14T01:52:57;97369.00;;;9.13;100.00
59419;BME280;45224;50.904;6.038;2023-03-14T01:54:37;97369.09;;;9.10;100.00
59419;BME280;45224;50.904;6.038;2023-03-14T01:56:12;97372.16;;;9.21;100.00
59419;BME280;45224;50.904;6.038;2023-03-14T01:57:49;97374.72;;;9.21;100.00
59419;BME280;45224;50.904;6.038;2023-03-14T01:59:22;97364.44;;;9.21;100.00
59419;BME280;45224;50.904;6.038;2023-03-14T02:00:55;97368.31;;;9.08;100.00
59419;BME280;45224;50.904;6.038;2023-03-14T02:02:28;97373.09;;;9.19;100.00
59419;BME280;45224;50.904;6.038;2023-03-14T02:04:01;97372.34;;;9.15;100.00
59419;BME280;45224;50.904;6.038;2023-03-14T02:05:38;97375.03;;;9.12;100.00
59419;BME280;45224;50.904;6.038;2023-03-14T02:09:17;97386.44;;;9.05;100.00
59419;BME280;45224;50.904;6.038;2023-03-14T02:10:49;97380.13;;;9.13;100.00
59419;BME280;45224;50.904;6.038;2023-03-14T02:12:23;97381.78;;;9.16;100.00
59419;BME280;45224;50.904;6.038;2023-03-14T02:14:16;97375.53;;;9.23;100.00
59419;BME280;45224;50.904;6.038;2023-03-14T02:16:04;97375.63;;;9.20;100.00
59419;BME280;45224;50.904;6.038;2023-03-14T02:17:56;97370.50;;;9.19;100.00
59419;BME280;45224;50.904;6.038;2023-03-14T02:21:55;97376.59;;;9.18;100.00
59419;BME280;45224;50.904;6.038;2023-03-14T02:27:19;97365.69;;;9.09;100.00
59419;BME280;45224;50.904;6.038;2023-03-14T02:28:51;97364.44;;;9.21;100.00
59419;BME280;45224;50.904;6.038;2023-03-14T02:30:27;97373.03;;;9.20;100.00
59419;BME280;45224;50.904;6.038;2023-03-14T02:32:00;97364.44;;;9.21;100.00
59419;BME280;45224;50.904;6.038;2023-03-14T02:33:31;97351.63;;;9.18;100.00
59419;BME280;45224;50.904;6.038;2023-03-14T02:35:09;97369.78;;;9.15;100.00
59419;BME280;45224;50.904;6.038;2023-03-14T02:36:41;97361.84;;;9.21;100.00
59419;BME280;45224;50.904;6.038;2023-03-14T02:40:09;97375.75;;;9.16;100.00
59419;BME280;45224;50.904;6.038;2023-03-14T02:41:41;97363.78;;;9.14;100.00
59419;BME280;45224;50.904;6.038;2023-03-14T02:43:12;97362.81;;;9.17;100.00
59419;BME280;45224;50.904;6.038;2023-03-14T02:44:59;97373.13;;;9.17;100.00
59419;BME280;45224;50.904;6.038;2023-03-14T02:46:31;97376.03;;;9.08;100.00
59419;BME280;45224;50.904;6.038;2023-03-14T02:48:07;97362.28;;;9.07;100.00
59419;BME280;45224;50.904;6.038;2023-03-14T02:49:41;97359.47;;;9.15;100.00
59419;BME280;45224;50.904;6.038;2023-03-14T02:51:13;97350.06;;;9.14;100.00
59419;BME280;45224;50.904;6.038;2023-03-14T02:52:44;97348.47;;;9.10;100.00
59419;BME280;45224;50.904;6.038;2023-03-14T02:54:15;97344.78;;;9.17;100.00
59419;BME280;45224;50.904;6.038;2023-03-14T02:55:47;97357.91;;;9.11;100.00
59419;BME280;45224;50.904;6.038;2023-03-14T02:57:20;97345.88;;;9.10;100.00
59419;BME280;45224;50.904;6.038;2023-03-14T02:58:51;97346.38;;;9.21;100.00
59419;BME280;45224;50.904;6.038;2023-03-14T03:00:41;97347.25;;;9.20;100.00
59419;BME280;45224;50.904;6.038;2023-03-14T03:02:14;97344.00;;;9.15;100.00
59419;BME280;45224;50.904;6.038;2023-03-14T03:03:44;97336.47;;;9.09;100.00
59419;BME280;45224;50.904;6.038;2023-03-14T03:05:16;97339.38;;;9.00;100.00
59419;BME280;45224;50.904;6.038;2023-03-14T03:06:46;97326.72;;;8.92;100.00
59419;BME280;45224;50.904;6.038;2023-03-14T03:08:20;97319.25;;;8.84;100.00
59419;BME280;45224;50.904;6.038;2023-03-14T03:09:53;97337.78;;;8.95;100.00
59419;BME280;45224;50.904;6.038;2023-03-14T03:11:24;97337.78;;;8.95;100.00
59419;BME280;45224;50.904;6.038;2023-03-14T03:12:54;97325.13;;;8.88;100.00
59419;BME280;45224;50.904;6.038;2023-03-14T03:14:28;97312.34;;;8.85;100.00
59419;BME280;45224;50.904;6.038;2023-03-14T03:16:03;97319.44;;;8.78;100.00
59419;BME280;45224;50.904;6.038;2023-03-14T03:17:33;97312.13;;;8.66;100.00
59419;BME280;45224;50.904;6.038;2023-03-14T03:19:04;97321.81;;;8.84;100.00
59419;BME280;45224;50.904;6.038;2023-03-14T03:20:35;97311.69;;;8.78;100.00
59419;BME280;45224;50.904;6.038;2023-03-14T03:22:06;97311.66;;;8.80;100.00
59419;BME280;45224;50.904;6.038;2023-03-14T03:23:36;97305.97;;;8.70;100.00
59419;BME280;45224;50.904;6.038;2023-03-14T03:25:10;97305.88;;;8.73;100.00
59419;BME280;45224;50.904;6.038;2023-03-14T03:26:40;97293.28;;;8.64;100.00
59419;BME280;45224;50.904;6.038;2023-03-14T03:28:14;97311.31;;;8.64;100.00
59419;BME280;45224;50.904;6.038;2023-03-14T03:29:45;97299.44;;;8.59;100.00
59419;BME280;45224;50.904;6.038;2023-03-14T03:31:16;97290.91;;;8.57;100.00
59419;BME280;45224;50.904;6.038;2023-03-14T03:32:46;97318.75;;;8.73;100.00
59419;BME280;45224;50.904;6.038;2023-03-14T03:34:17;97302.59;;;8.68;100.00
59419;BME280;45224;50.904;6.038;2023-03-14T03:35:53;97304.69;;;8.56;100.00
59419;BME280;45224;50.904;6.038;2023-03-14T03:37:33;97293.50;;;8.57;100.00
59419;BME280;45224;50.904;6.038;2023-03-14T03:39:04;97288.97;;;8.64;100.00
59419;BME280;45224;50.904;6.038;2023-03-14T03:40:37;97292.38;;;8.65;100.00
59419;BME280;45224;50.904;6.038;2023-03-14T03:42:08;97293.41;;;8.59;100.00
59419;BME280;45224;50.904;6.038;2023-03-14T03:43:43;97296.50;;;8.42;100.00
59419;BME280;45224;50.904;6.038;2023-03-14T03:45:19;97293.88;;;8.45;100.00
59419;BME280;45224;50.904;6.038;2023-03-14T03:46:55;97288.75;;;8.44;100.00
59419;BME280;45224;50.904;6.038;2023-03-14T03:48:26;97295.72;;;8.40;100.00
59419;BME280;45224;50.904;6.038;2023-03-14T03:49:57;97276.00;;;8.39;100.00
59419;BME280;45224;50.904;6.038;2023-03-14T03:51:28;97297.97;;;8.51;100.00
59419;BME280;45224;50.904;6.038;2023-03-14T03:52:58;97293.00;;;8.46;100.00
59419;BME280;45224;50.904;6.038;2023-03-14T03:54:29;97300.63;;;8.48;100.00
59419;BME280;45224;50.904;6.038;2023-03-14T03:56:00;97293.16;;;8.40;100.00
59419;BME280;45224;50.904;6.038;2023-03-14T03:57:32;97286.44;;;8.34;100.00
59419;BME280;45224;50.904;6.038;2023-03-14T03:59:02;97300.59;;;8.49;100.00
59419;BME280;45224;50.904;6.038;2023-03-14T04:00:32;97294.81;;;8.41;100.00
59419;BME280;45224;50.904;6.038;2023-03-14T04:02:03;97292.88;;;8.49;100.00
59419;BME280;45224;50.904;6.038;2023-03-14T04:03:34;97303.72;;;8.59;100.00
59419;BME280;45224;50.904;6.038;2023-03-14T04:05:06;97294.56;;;8.50;100.00
59419;BME280;45224;50.904;6.038;2023-03-14T04:06:37;97292.59;;;8.58;100.00
59419;BME280;45224;50.904;6.038;2023-03-14T04:08:07;97299.47;;;8.58;100.00
59419;BME280;45224;50.904;6.038;2023-03-14T04:09:38;97304.78;;;8.53;100.00
59419;BME280;45224;50.904;6.038;2023-03-14T04:11:14;97299.63;;;8.53;100.00
59419;BME280;45224;50.904;6.038;2023-03-14T04:12:56;97296.06;;;8.57;100.00
59419;BME280;45224;50.904;6.038;2023-03-14T04:14:30;97301.44;;;8.50;100.00
59419;BME280;45224;50.904;6.038;2023-03-14T04:16:23;97298.84;;;8.51;100.00
59419;BME280;45224;50.904;6.038;2023-03-14T04:17:58;97302.25;;;8.52;100.00
59419;BME280;45224;50.904;6.038;2023-03-14T04:19:29;97299.44;;;8.59;100.00
59419;BME280;45224;50.904;6.038;2023-03-14T04:21:00;97299.66;;;8.52;100.00
59419;BME280;45224;50.904;6.038;2023-03-14T04:22:40;97282.09;;;8.65;100.00
59419;BME280;45224;50.904;6.038;2023-03-14T04:24:11;97294.19;;;8.63;100.00
59419;BME280;45224;50.904;6.038;2023-03-14T04:25:42;97295.16;;;8.58;100.00
59419;BME280;45224;50.904;6.038;2023-03-14T04:27:12;97298.41;;;8.64;100.00
59419;BME280;45224;50.904;6.038;2023-03-14T04:28:45;97295.06;;;8.62;100.00
59419;BME280;45224;50.904;6.038;2023-03-14T04:30:16;97288.75;;;8.44;100.00
59419;BME280;45224;50.904;6.038;2023-03-14T04:31:57;97300.81;;;8.43;100.00
59419;BME280;45224;50.904;6.038;2023-03-14T04:33:28;97272.06;;;8.55;100.00
59419;BME280;45224;50.904;6.038;2023-03-14T04:35:00;97283.19;;;8.57;100.00
59419;BME280;45224;50.904;6.038;2023-03-14T04:36:31;97283.28;;;8.54;100.00
59419;BME280;45224;50.904;6.038;2023-03-14T04:38:06;97278.88;;;8.58;100.00
59419;BME280;45224;50.904;6.038;2023-03-14T04:39:38;97273.78;;;8.56;100.00
59419;BME280;45224;50.904;6.038;2023-03-14T04:41:16;97274.84;;;8.49;100.00
59419;BME280;45224;50.904;6.038;2023-03-14T04:42:46;97284.25;;;8.50;100.00
59419;BME280;45224;50.904;6.038;2023-03-14T04:44:18;97276.28;;;8.58;100.00
59419;BME280;45224;50.904;6.038;2023-03-14T04:45:48;97272.88;;;8.57;100.00
59419;BME280;45224;50.904;6.038;2023-03-14T04:47:19;97279.56;;;8.63;100.00
59419;BME280;45224;50.904;6.038;2023-03-14T04:48:51;97284.03;;;8.58;100.00
59419;BME280;45224;50.904;6.038;2023-03-14T04:50:23;97278.97;;;8.55;100.00
59419;BME280;45224;50.904;6.038;2023-03-14T04:51:53;97279.19;;;8.47;100.00
59419;BME280;45224;50.904;6.038;2023-03-14T04:53:25;97267.41;;;8.40;100.00
59419;BME280;45224;50.904;6.038;2023-03-14T04:54:58;97267.28;;;8.45;100.00
59419;BME280;45224;50.904;6.038;2023-03-14T04:56:31;97270.50;;;8.51;100.00
59419;BME280;45224;50.904;6.038;2023-03-14T04:58:01;97267.03;;;8.52;100.00
59419;BME280;45224;50.904;6.038;2023-03-14T04:59:32;97267.03;;;8.52;100.00
59419;BME280;45224;50.904;6.038;2023-03-14T05:01:11;97256.81;;;8.49;100.00
59419;BME280;45224;50.904;6.038;2023-03-14T05:03:03;97258.69;;;8.44;100.00
59419;BME280;45224;50.904;6.038;2023-03-14T05:05:09;97264.75;;;8.43;100.00
59419;BME280;45224;50.904;6.038;2023-03-14T05:06:49;97268.91;;;8.47;100.00
59419;BME280;45224;50.904;6.038;2023-03-14T05:08:32;97270.69;;;8.45;100.00
59419;BME280;45224;50.904;6.038;2023-03-14T05:10:16;97269.00;;;8.44;100.00
59419;BME280;45224;50.904;6.038;2023-03-14T05:12:14;97260.41;;;8.45;100.00
59419;BME280;45224;50.904;6.038;2023-03-14T05:13:58;97256.22;;;8.39;100.00
59419;BME280;45224;50.904;6.038;2023-03-14T05:15:37;97243.63;;;8.32;100.00
59419;BME280;45224;50.904;6.038;2023-03-14T05:17:34;97239.06;;;8.40;100.00
59419;BME280;45224;50.904;6.038;2023-03-14T05:19:17;97256.06;;;8.46;100.00
59419;BME280;45224;50.904;6.038;2023-03-14T05:21:06;97255.16;;;8.48;100.00
59419;BME280;45224;50.904;6.038;2023-03-14T05:22:55;97239.22;;;8.35;100.00
59419;BME280;45224;50.904;6.038;2023-03-14T05:24:44;97243.53;;;8.35;100.00
59419;BME280;45224;50.904;6.038;2023-03-14T05:26:29;97246.81;;;8.40;100.00
59419;BME280;45224;50.904;6.038;2023-03-14T05:28:26;97238.97;;;8.45;100.00
59419;BME280;45224;50.904;6.038;2023-03-14T05:30:15;97236.34;;;8.46;100.00
59419;BME280;45224;50.904;6.038;2023-03-14T05:31:46;97229.09;;;8.57;100.00
59419;BME280;45224;50.904;6.038;2023-03-14T05:33:48;97229.31;;;8.51;100.00
59419;BME280;45224;50.904;6.038;2023-03-14T05:35:35;97231.72;;;8.56;100.00
59419;BME280;45224;50.904;6.038;2023-03-14T05:37:37;97229.31;;;8.51;100.00
59419;BME280;45224;50.904;6.038;2023-03-14T05:39:43;97233.25;;;8.35;100.00
59419;BME280;45224;50.904;6.038;2023-03-14T05:41:35;97212.34;;;8.44;100.00
59419;BME280;45224;50.904;6.038;2023-03-14T05:43:31;97223.50;;;8.45;100.00
59419;BME280;45224;50.904;6.038;2023-03-14T05:45:13;97220.94;;;8.45;100.00
59419;BME280;45224;50.904;6.038;2023-03-14T05:47:09;97214.41;;;8.33;100.00
59419;BME280;45224;50.904;6.038;2023-03-14T05:49:09;97216.19;;;8.31;100.00
59419;BME280;45224;50.904;6.038;2023-03-14T05:51:04;97221.25;;;8.34;100.00
59419;BME280;45224;50.904;6.038;2023-03-14T05:53:10;97224.59;;;8.36;100.00
59419;BME280;45224;50.904;6.038;2023-03-14T05:55:02;97221.34;;;8.31;100.00
59419;BME280;45224;50.904;6.038;2023-03-14T05:56:52;97213.28;;;8.41;100.00
59419;BME280;45224;50.904;6.038;2023-03-14T05:58:38;97219.25;;;8.44;100.00
59419;BME280;45224;50.904;6.038;2023-03-14T06:00:21;97219.25;;;8.44;100.00
59419;BME280;45224;50.904;6.038;2023-03-14T06:02:04;97219.19;;;8.45;100.00
59419;BME280;45224;50.904;6.038;2023-03-14T06:03:44;97233.97;;;8.38;100.00
59419;BME280;45224;50.904;6.038;2023-03-14T06:05:14;97216.94;;;8.34;100.00
59419;BME280;45224;50.904;6.038;2023-03-14T06:06:45;97226.16;;;8.41;100.00
59419;BME280;45224;50.904;6.038;2023-03-14T06:08:16;97226.72;;;8.51;100.00
59419;BME280;45224;50.904;6.038;2023-03-14T06:09:47;97227.50;;;8.53;100.00
59419;BME280;45224;50.904;6.038;2023-03-14T06:11:20;97222.50;;;8.49;100.00
59419;BME280;45224;50.904;6.038;2023-03-14T06:12:50;97229.22;;;8.54;100.00
59419;BME280;45224;50.904;6.038;2023-03-14T06:14:21;97210.47;;;8.49;100.00
59419;BME280;45224;50.904;6.038;2023-03-14T06:15:53;97227.50;;;8.53;100.00
59419;BME280;45224;50.904;6.038;2023-03-14T06:17:24;97234.44;;;8.51;100.00
59419;BME280;45224;50.904;6.038;2023-03-14T06:19:05;97236.03;;;8.55;100.00
59419;BME280;45224;50.904;6.038;2023-03-14T06:20:37;97235.59;;;8.41;100.00
59419;BME280;45224;50.904;6.038;2023-03-14T06:22:12;97233.44;;;8.55;100.00
59419;BME280;45224;50.904;6.038;2023-03-14T06:23:44;97234.13;;;8.61;100.00
59419;BME280;45224;50.904;6.038;2023-03-14T06:25:15;97241.81;;;8.62;100.00
59419;BME280;45224;50.904;6.038;2023-03-14T06:26:49;97232.28;;;8.66;100.00
59419;BME280;45224;50.904;6.038;2023-03-14T06:28:19;97228.97;;;8.61;100.00
59419;BME280;45224;50.904;6.038;2023-03-14T06:29:50;97230.69;;;8.62;100.00
59419;BME280;45224;50.904;6.038;2023-03-14T06:31:20;97219.69;;;8.56;100.00
59419;BME280;45224;50.904;6.038;2023-03-14T06:32:59;97222.75;;;8.68;100.00
59419;BME280;45224;50.904;6.038;2023-03-14T06:34:31;97237.31;;;8.69;100.00
59419;BME280;45224;50.904;6.038;2023-03-14T06:36:02;97235.44;;;8.74;100.00
59419;BME280;45224;50.904;6.038;2023-03-14T06:37:33;97226.25;;;8.65;100.00
59419;BME280;45224;50.904;6.038;2023-03-14T06:39:04;97222.16;;;8.59;100.00
59419;BME280;45224;50.904;6.038;2023-03-14T06:40:37;97225.72;;;8.55;100.00
59419;BME280;45224;50.904;6.038;2023-03-14T06:42:15;97232.16;;;8.69;100.00
59419;BME280;45224;50.904;6.038;2023-03-14T06:43:47;97254.34;;;8.73;100.00
59419;BME280;45224;50.904;6.038;2023-03-14T06:45:18;97246.13;;;8.62;100.00
59419;BME280;45224;50.904;6.038;2023-03-14T06:46:50;97232.38;;;8.63;100.00
59419;BME280;45224;50.904;6.038;2023-03-14T06:48:21;97236.47;;;8.68;100.00
59419;BME280;45224;50.904;6.038;2023-03-14T06:49:56;97230.97;;;8.79;100.00
59419;BME280;45224;50.904;6.038;2023-03-14T06:51:27;97239.25;;;8.87;100.00
59419;BME280;45224;50.904;6.038;2023-03-14T06:52:58;97244.31;;;8.90;100.00
59419;BME280;45224;50.904;6.038;2023-03-14T06:54:30;97240.16;;;8.86;100.00
59419;BME280;45224;50.904;6.038;2023-03-14T06:56:01;97248.88;;;8.82;100.00
59419;BME280;45224;50.904;6.038;2023-03-14T06:57:33;97239.41;;;8.83;100.00
59419;BME280;45224;50.904;6.038;2023-03-14T06:59:04;97245.16;;;8.91;100.00
59419;BME280;45224;50.904;6.038;2023-03-14T07:00:36;97250.19;;;8.94;100.00
59419;BME280;45224;50.904;6.038;2023-03-14T07:02:10;97241.69;;;8.92;100.00
59419;BME280;45224;50.904;6.038;2023-03-14T07:03:43;97253.59;;;8.94;100.00
59419;BME280;45224;50.904;6.038;2023-03-14T07:05:14;97249.16;;;9.00;100.00
59419;BME280;45224;50.904;6.038;2023-03-14T07:06:44;97248.69;;;8.88;100.00
59419;BME280;45224;50.904;6.038;2023-03-14T07:08:16;97259.56;;;8.97;100.00
59419;BME280;45224;50.904;6.038;2023-03-14T07:09:47;97257.56;;;9.05;100.00
59419;BME280;45224;50.904;6.038;2023-03-14T07:11:17;97253.19;;;9.07;100.00
59419;BME280;45224;50.904;6.038;2023-03-14T07:12:48;97258.25;;;9.10;100.00
59419;BME280;45224;50.904;6.038;2023-03-14T07:14:19;97258.34;;;9.07;100.00
59419;BME280;45224;50.904;6.038;2023-03-14T07:15:50;97251.50;;;9.06;100.00
59419;BME280;45224;50.904;6.038;2023-03-14T07:17:21;97255.19;;;8.99;100.00
59419;BME280;45224;50.904;6.038;2023-03-14T07:18:51;97269.44;;;9.09;100.00
59419;BME280;45224;50.904;6.038;2023-03-14T07:20:22;97269.53;;;9.06;100.00
59419;BME280;45224;50.904;6.038;2023-03-14T07:21:53;97266.50;;;8.94;100.00
59419;BME280;45224;50.904;6.038;2023-03-14T07:23:28;97267.22;;;9.00;100.00
59419;BME280;45224;50.904;6.038;2023-03-14T07:24:58;97274.69;;;9.06;100.00
59419;BME280;45224;50.904;6.038;2023-03-14T07:26:29;97265.09;;;9.11;100.00
59419;BME280;45224;50.904;6.038;2023-03-14T07:28:00;97270.16;;;9.14;100.00
59419;BME280;45224;50.904;6.038;2023-03-14T07:29:31;97278.78;;;9.13;100.00
59419;BME280;45224;50.904;6.038;2023-03-14T07:31:02;97277.06;;;9.12;100.00
59419;BME280;45224;50.904;6.038;2023-03-14T07:32:35;97272.50;;;9.20;100.00
59419;BME280;45224;50.904;6.038;2023-03-14T07:34:06;97273.16;;;9.27;100.00
59419;BME280;45224;50.904;6.038;2023-03-14T07:35:41;97283.28;;;9.31;100.00
59419;BME280;45224;50.904;6.038;2023-03-14T07:37:11;97271.91;;;9.37;100.00
59419;BME280;45224;50.904;6.038;2023-03-14T07:38:42;97287.66;;;9.29;100.00
59419;BME280;45224;50.904;6.038;2023-03-14T07:40:31;97280.69;;;9.31;100.00
59419;BME280;45224;50.904;6.038;2023-03-14T07:42:01;97287.59;;;9.31;100.00
59419;BME280;45224;50.904;6.038;2023-03-14T07:43:47;97283.97;;;9.37;100.00
59419;BME280;45224;50.904;6.038;2023-03-14T07:45:18;97295.19;;;9.36;100.00
59419;BME280;45224;50.904;6.038;2023-03-14T07:46:48;97295.75;;;9.44;100.00
59419;BME280;45224;50.904;6.038;2023-03-14T07:48:19;97289.13;;;9.37;100.00
59419;BME280;45224;50.904;6.038;2023-03-14T07:49:50;97302.50;;;9.48;100.00
59419;BME280;45224;50.904;6.038;2023-03-14T07:51:20;97300.44;;;9.32;100.00
59419;BME280;45224;50.904;6.038;2023-03-14T07:52:51;97299.44;;;9.37;100.00
59419;BME280;45224;50.904;6.038;2023-03-14T07:55:20;56623.69;;;-145.45;100.00
59419;BME280;45224;50.904;6.038;2023-03-14T07:57:49;56623.69;;;-145.45;100.00
59419;BME280;45224;50.904;6.038;2023-03-14T08:00:18;56623.69;;;-145.45;100.00
59419;BME280;45224;50.904;6.038;2023-03-14T08:02:48;56623.69;;;-145.45;100.00
59419;BME280;45224;50.904;6.038;2023-03-14T08:05:17;56623.69;;;-145.45;100.00
59419;BME280;45224;50.904;6.038;2023-03-14T08:07:46;56623.69;;;-145.45;100.00
59419;BME280;45224;50.904;6.038;2023-03-14T08:10:15;56623.69;;;-145.45;100.00
59419;BME280;45224;50.904;6.038;2023-03-14T08:12:53;56623.69;;;-145.45;100.00
59419;BME280;45224;50.904;6.038;2023-03-14T08:15:23;56623.69;;;-145.45;100.00
59419;BME280;45224;50.904;6.038;2023-03-14T08:17:52;56623.69;;;-145.45;100.00
59419;BME280;45224;50.904;6.038;2023-03-14T08:19:24;97299.44;;;9.37;100.00
59419;BME280;45224;50.904;6.038;2023-03-14T08:20:55;97344.19;;;9.61;100.00
59419;BME280;45224;50.904;6.038;2023-03-14T08:22:26;97356.13;;;9.63;100.00
59419;BME280;45224;50.904;6.038;2023-03-14T08:23:56;97348.38;;;9.63;100.00
59419;BME280;45224;50.904;6.038;2023-03-14T08:25:27;97355.31;;;9.61;100.00
59419;BME280;45224;50.904;6.038;2023-03-14T08:26:58;97356.31;;;9.57;100.00
59419;BME280;45224;50.904;6.038;2023-03-14T08:28:28;97352.44;;;9.71;100.00
59419;BME280;45224;50.904;6.038;2023-03-14T08:30:00;97353.22;;;9.73;100.00
59419;BME280;45224;50.904;6.038;2023-03-14T08:31:31;97356.38;;;9.81;100.00
59419;BME280;45224;50.904;6.038;2023-03-14T08:33:01;97363.28;;;9.80;100.00
59419;BME280;45224;50.904;6.038;2023-03-14T08:34:33;97361.25;;;9.89;100.00
59419;BME280;45224;50.904;6.038;2023-03-14T08:36:03;97364.78;;;9.86;100.00
59419;BME280;45224;50.904;6.038;2023-03-14T08:37:35;97365.38;;;9.93;100.00
59419;BME280;45224;50.904;6.038;2023-03-14T08:39:06;97367.13;;;9.92;100.00
59419;BME280;45224;50.904;6.038;2023-03-14T08:40:37;97378.34;;;9.91;100.00
59419;BME280;45224;50.904;6.038;2023-03-14T08:42:07;97376.91;;;9.84;100.00
59419;BME280;45224;50.904;6.038;2023-03-14T08:43:38;97403.28;;;9.92;100.00
59419;BME280;45224;50.904;6.038;2023-03-14T08:45:11;97441.72;;;9.75;100.00
59419;BME280;45224;50.904;6.038;2023-03-14T08:46:42;97465.91;;;9.19;100.00
59419;BME280;45224;50.904;6.038;2023-03-14T08:48:12;97464.38;;;9.13;100.00
59419;BME280;45224;50.904;6.038;2023-03-14T08:49:43;97480.13;;;8.75;100.00
59419;BME280;45224;50.904;6.038;2023-03-14T08:51:13;97476.13;;;8.93;100.00
59419;BME280;45224;50.904;6.038;2023-03-14T08:52:44;97483.69;;;8.40;100.00
59419;BME280;45224;50.904;6.038;2023-03-14T08:54:14;97496.09;;;8.26;100.00